Time;durP1;ratioP1;P1;durP2;ratioP2;P2;SDS_P1;SDS_P2;PMS_P1;PMS_P2;Temp;Humidity;BMP_temperature;BMP_pressure;BME280_temperature;BME280_humidity;BME280_pressure;Samples;Min_cycle;Max_cycle;Signal;HPM_P1;HPM_P2
2023/06/01 00:00:30;;;;;;;;;;;;;;;12.93;89.10;96031.25;5053452;28;19947;-72
2023/06/01 00:02:57;;;;;;;;;;;;;;;12.77;90.22;96026.28;5054819;28;19925;-73
2023/06/01 00:05:23;;;;;;;;;;;;;;;12.79;90.58;96029.59;5061284;28;20003;-73
2023/06/01 00:07:49;;;;;;;;;;;;;;;12.65;93.10;96037.50;5054667;28;19925;-72
2023/06/01 00:10:15;;;;;;;;;;;;;;;12.63;92.56;96032.38;5055668;28;19925;-72
2023/06/01 00:12:42;;;;;;;;;;;;;;;12.61;91.58;96026.47;5054448;28;19925;-72
2023/06/01 00:15:09;;;;;;;;;;;;;;;12.66;92.68;96027.00;5057050;28;20365;-71
2023/06/01 00:17:36;;;;;;;;;;;;;;;12.57;94.19;96025.84;5052330;28;19925;-72
2023/06/01 00:20:05;;;;;;;;;;;;;;;12.49;94.40;96028.09;5054067;28;20311;-72
2023/06/01 00:22:34;;;;;;;;;;;;;;;12.48;96.69;96026.44;5060082;28;20337;-72
2023/06/01 00:25:00;;;;;;;;;;;;;;;12.61;94.23;96021.28;5042500;28;19925;-72
2023/06/01 00:27:26;;;;;;;;;;;;;;;12.68;93.86;96022.53;5060547;28;19924;-72
2023/06/01 00:29:52;;;;;;;;;;;;;;;12.70;93.56;96025.84;5050289;28;19932;-71
2023/06/01 00:32:20;;;;;;;;;;;;;;;12.76;92.67;96035.00;5060655;28;19925;-72
2023/06/01 00:34:46;;;;;;;;;;;;;;;12.82;91.73;96029.38;5055079;28;19940;-72
2023/06/01 00:37:12;;;;;;;;;;;;;;;12.79;92.40;96025.25;5061818;28;19936;-72
2023/06/01 00:39:39;;;;;;;;;;;;;;;12.76;91.95;96025.44;5064028;28;19924;-72
2023/06/01 00:42:06;;;;;;;;;;;;;;;12.69;93.68;96028.56;5056127;28;19924;-72
2023/06/01 00:44:32;;;;;;;;;;;;;;;12.64;93.28;96025.41;5054465;28;20378;-73
2023/06/01 00:46:59;;;;;;;;;;;;;;;12.63;93.55;96018.56;5057687;28;19933;-72
2023/06/01 00:49:27;;;;;;;;;;;;;;;12.44;95.78;96024.97;5061435;28;20024;-72
2023/06/01 00:51:53;;;;;;;;;;;;;;;12.44;94.44;96022.38;5046668;28;19936;-72
2023/06/01 00:54:20;;;;;;;;;;;;;;;12.42;93.99;96026.88;5060599;28;19931;-72
2023/06/01 00:56:46;;;;;;;;;;;;;;;12.26;96.31;96021.81;5066290;28;20299;-72
2023/06/01 00:59:13;;;;;;;;;;;;;;;12.28;93.79;96024.34;5063415;28;19937;-72
2023/06/01 01:01:42;;;;;;;;;;;;;;;12.01;93.59;96024.34;5066825;28;19924;-72
2023/06/01 01:04:10;;;;;;;;;;;;;;;12.26;92.34;96014.03;5064551;28;19936;-71
2023/06/01 01:06:48;;;;;;;;;;;;;;;12.23;93.53;96021.19;5062746;28;19928;-72
2023/06/01 01:09:19;;;;;;;;;;;;;;;12.19;92.71;96019.72;5050447;28;20028;-73
2023/06/01 01:11:51;;;;;;;;;;;;;;;12.17;93.21;96016.41;5063970;28;19932;-73
2023/06/01 01:14:20;;;;;;;;;;;;;;;11.90;93.99;96008.63;5047565;28;19940;-72
2023/06/01 01:16:50;;;;;;;;;;;;;;;12.09;93.49;96011.72;5066777;28;19970;-73
2023/06/01 01:19:25;;;;;;;;;;;;;;;12.28;92.70;96013.94;5052456;28;20288;-72
2023/06/01 01:21:58;;;;;;;;;;;;;;;12.38;91.46;96017.59;5065046;28;19924;-72
2023/06/01 01:24:32;;;;;;;;;;;;;;;12.37;92.12;96010.72;5050277;28;19925;-72
2023/06/01 01:27:08;;;;;;;;;;;;;;;12.45;91.47;96015.41;5056734;28;19928;-72
2023/06/01 01:29:36;;;;;;;;;;;;;;;12.41;92.45;96014.78;5058595;28;19924;-72
2023/06/01 01:32:04;;;;;;;;;;;;;;;12.33;93.50;96009.28;5059747;28;19924;-72
2023/06/01 01:34:31;;;;;;;;;;;;;;;12.05;95.64;96012.81;5055160;28;20362;-71
2023/06/01 01:36:57;;;;;;;;;;;;;;;11.99;95.39;96013.25;5057033;28;19925;-71
2023/06/01 01:39:23;;;;;;;;;;;;;;;11.75;97.86;96006.03;5065348;28;19929;-72
2023/06/01 01:41:50;;;;;;;;;;;;;;;11.63;100.00;96012.03;5052572;28;19925;-73
2023/06/01 01:44:17;;;;;;;;;;;;;;;11.52;100.00;96004.91;5055689;28;19924;-72
2023/06/01 01:46:52;;;;;;;;;;;;;;;11.46;100.00;96007.91;5050323;28;19933;-71
2023/06/01 01:49:21;;;;;;;;;;;;;;;11.45;100.00;96010.56;5055054;28;19932;-72
2023/06/01 01:51:51;;;;;;;;;;;;;;;11.49;100.00;96004.28;5052137;28;19928;-72
2023/06/01 01:54:18;;;;;;;;;;;;;;;11.52;99.86;96006.69;5057568;28;20358;-71
2023/06/01 01:56:45;;;;;;;;;;;;;;;11.57;99.55;96005.47;5057270;28;19924;-72
2023/06/01 01:59:12;;;;;;;;;;;;;;;11.47;100.00;96006.16;5058796;28;19925;-71
2023/06/01 02:01:41;;;;;;;;;;;;;;;11.31;100.00;95998.47;5053943;28;19928;-72
2023/06/01 02:04:09;;;;;;;;;;;;;;;10.99;100.00;96003.06;5058708;28;19935;-72
2023/06/01 02:06:36;;;;;;;;;;;;;;;10.89;100.00;95995.81;5064619;28;19928;-72
2023/06/01 02:09:06;;;;;;;;;;;;;;;10.84;100.00;96002.22;5055541;28;19928;-72
2023/06/01 02:11:32;;;;;;;;;;;;;;;10.91;100.00;95995.75;5062948;28;19951;-72
2023/06/01 02:13:58;;;;;;;;;;;;;;;11.07;100.00;95995.63;5050055;28;20593;-72
2023/06/01 02:16:25;;;;;;;;;;;;;;;11.15;100.00;95996.81;5047942;28;19929;-73
2023/06/01 02:18:52;;;;;;;;;;;;;;;11.06;100.00;95988.78;5048092;28;19951;-72
2023/06/01 02:21:20;;;;;;;;;;;;;;;11.08;100.00;95994.69;5063171;28;19937;-72
2023/06/01 02:23:46;;;;;;;;;;;;;;;11.09;100.00;95988.63;5054849;28;19932;-72
2023/06/01 02:26:12;;;;;;;;;;;;;;;11.11;100.00;95989.34;5050901;28;20378;-72
2023/06/01 02:28:40;;;;;;;;;;;;;;;11.29;100.00;95989.97;5057597;28;19940;-71
2023/06/01 02:31:06;;;;;;;;;;;;;;;11.15;100.00;95988.22;5053338;28;20469;-72
2023/06/01 02:33:33;;;;;;;;;;;;;;;11.18;100.00;95984.59;5053296;28;19982;-72
2023/06/01 02:35:59;;;;;;;;;;;;;;;11.10;100.00;95985.91;5052471;28;20027;-72
2023/06/01 02:38:27;;;;;;;;;;;;;;;11.17;100.00;95991.56;5058416;28;20392;-72
2023/06/01 02:40:53;;;;;;;;;;;;;;;11.00;100.00;95986.56;5047280;28;19928;-72
2023/06/01 02:43:20;;;;;;;;;;;;;;;10.94;100.00;95986.94;5049545;28;19925;-72
2023/06/01 02:45:46;;;;;;;;;;;;;;;10.99;100.00;95977.97;5055364;28;19977;-71
2023/06/01 02:48:12;;;;;;;;;;;;;;;11.07;100.00;95988.69;5063154;28;20351;-72
2023/06/01 02:50:39;;;;;;;;;;;;;;;11.21;100.00;95980.06;5050202;28;19935;-71
2023/06/01 02:53:05;;;;;;;;;;;;;;;11.17;100.00;95981.19;5054985;28;19924;-72
2023/06/01 02:55:33;;;;;;;;;;;;;;;11.04;100.00;95982.84;5056753;28;20370;-73
2023/06/01 02:57:59;;;;;;;;;;;;;;;11.10;100.00;95987.69;5049168;28;19932;-71
2023/06/01 03:00:27;;;;;;;;;;;;;;;11.21;100.00;95980.06;5051453;28;20551;-72
2023/06/01 03:02:53;;;;;;;;;;;;;;;11.17;100.00;95983.78;5051878;28;19964;-72
2023/06/01 03:05:20;;;;;;;;;;;;;;;11.13;100.00;95985.72;5057505;28;19932;-71
2023/06/01 03:07:47;;;;;;;;;;;;;;;11.15;100.00;95983.84;5047288;28;19925;-71
2023/06/01 03:10:13;;;;;;;;;;;;;;;11.16;100.00;95982.13;5054852;28;19928;-69
2023/06/01 03:12:41;;;;;;;;;;;;;;;11.16;100.00;95989.91;5040813;28;20388;-71
2023/06/01 03:15:08;;;;;;;;;;;;;;;11.08;100.00;95979.97;5054003;28;19932;-72
2023/06/01 03:17:34;;;;;;;;;;;;;;;11.01;100.00;95976.13;5056921;28;19925;-71
2023/06/01 03:20:02;;;;;;;;;;;;;;;11.02;100.00;95980.38;5047133;28;19932;-72
2023/06/01 03:22:29;;;;;;;;;;;;;;;11.11;100.00;95974.59;5059072;28;19928;-72
2023/06/01 03:24:55;;;;;;;;;;;;;;;11.07;100.00;95975.72;5046608;28;20380;-72
2023/06/01 03:27:21;;;;;;;;;;;;;;;11.10;100.00;95979.91;5060377;28;20330;-72
2023/06/01 03:29:49;;;;;;;;;;;;;;;11.12;100.00;95980.63;5047822;28;19933;-72
2023/06/01 03:32:15;;;;;;;;;;;;;;;10.93;100.00;95982.69;5060171;28;19964;-72
2023/06/01 03:34:41;;;;;;;;;;;;;;;10.59;100.00;95985.53;5052217;28;19931;-72
2023/06/01 03:37:08;;;;;;;;;;;;;;;10.53;100.00;95990.25;5058168;28;19955;-71
2023/06/01 03:39:35;;;;;;;;;;;;;;;10.49;100.00;95989.59;5065093;28;20008;-71
2023/06/01 03:42:01;;;;;;;;;;;;;;;10.60;100.00;95987.19;5055818;28;19979;-72
2023/06/01 03:44:28;;;;;;;;;;;;;;;10.70;100.00;95990.09;5054264;28;19936;-72
2023/06/01 03:46:55;;;;;;;;;;;;;;;10.68;100.00;95989.34;5061976;28;19928;-72
2023/06/01 03:49:21;;;;;;;;;;;;;;;10.65;100.00;95989.53;5044862;28;20449;-71
2023/06/01 03:51:48;;;;;;;;;;;;;;;10.54;100.00;95987.56;5058101;28;19932;-72
2023/06/01 03:54:14;;;;;;;;;;;;;;;10.46;100.00;95994.13;5045871;28;20434;-71
2023/06/01 03:56:41;;;;;;;;;;;;;;;10.39;100.00;95991.06;5048124;28;19932;-71
2023/06/01 03:59:09;;;;;;;;;;;;;;;10.47;100.00;95988.84;5063058;28;20011;-72
2023/06/01 04:01:39;;;;;;;;;;;;;;;10.50;100.00;96003.41;5057781;28;19929;-71
2023/06/01 04:04:08;;;;;;;;;;;;;;;10.56;100.00;95988.31;5067741;28;20393;-71
2023/06/01 04:06:35;;;;;;;;;;;;;;;10.52;100.00;96004.94;5062902;28;19924;-72
2023/06/01 04:09:06;;;;;;;;;;;;;;;10.45;100.00;95998.47;5048412;28;20402;-71
2023/06/01 04:11:32;;;;;;;;;;;;;;;10.56;100.00;96000.41;5053913;28;20409;-71
2023/06/01 04:13:58;;;;;;;;;;;;;;;10.64;100.00;96000.78;5053343;28;19939;-71
2023/06/01 04:16:25;;;;;;;;;;;;;;;10.76;100.00;96000.09;5060302;28;19979;-71
2023/06/01 04:18:51;;;;;;;;;;;;;;;10.79;100.00;96004.22;5048738;28;20383;-71
2023/06/01 04:21:20;;;;;;;;;;;;;;;10.89;100.00;96015.72;5062116;28;20328;-70
2023/06/01 04:23:46;;;;;;;;;;;;;;;10.88;100.00;96008.88;5060903;28;20299;-71
2023/06/01 04:26:13;;;;;;;;;;;;;;;10.80;100.00;96011.09;5047424;28;19998;-71
2023/06/01 04:28:43;;;;;;;;;;;;;;;10.93;100.00;96006.00;5063454;28;19924;-70
2023/06/01 04:31:16;;;;;;;;;;;;;;;10.93;100.00;96018.97;5056905;28;19928;-71
2023/06/01 04:33:44;;;;;;;;;;;;;;;11.01;100.00;96011.53;5053905;28;19932;-73
2023/06/01 04:36:11;;;;;;;;;;;;;;;11.07;100.00;96019.78;5056905;28;19936;-72
2023/06/01 04:38:41;;;;;;;;;;;;;;;11.11;100.00;96017.84;5052055;28;20425;-70
2023/06/01 04:41:09;;;;;;;;;;;;;;;11.23;100.00;96018.84;5060224;28;19928;-71
2023/06/01 04:43:36;;;;;;;;;;;;;;;11.30;100.00;96009.78;5055891;28;20139;-71
2023/06/01 04:46:04;;;;;;;;;;;;;;;11.52;100.00;96011.88;5050828;28;19975;-74
2023/06/01 04:48:31;;;;;;;;;;;;;;;11.74;100.00;96022.56;5064298;28;19928;-71
2023/06/01 04:50:58;;;;;;;;;;;;;;;11.92;100.00;96017.16;5048663;28;19928;-71
2023/06/01 04:53:24;;;;;;;;;;;;;;;11.97;100.00;96009.91;5052342;28;20379;-71
2023/06/01 04:55:53;;;;;;;;;;;;;;;12.05;100.00;96020.63;5047147;28;19925;-71
2023/06/01 04:58:20;;;;;;;;;;;;;;;12.22;100.00;96019.53;5053111;28;20468;-71
2023/06/01 05:00:46;;;;;;;;;;;;;;;12.15;100.00;96019.09;5062008;28;19933;-72
2023/06/01 05:03:13;;;;;;;;;;;;;;;12.34;100.00;96029.94;5059382;28;20383;-72
2023/06/01 05:05:39;;;;;;;;;;;;;;;12.59;100.00;96018.75;5061219;28;20007;-71
2023/06/01 05:08:05;;;;;;;;;;;;;;;12.73;100.00;96025.66;5049416;28;20474;-71
2023/06/01 05:10:32;;;;;;;;;;;;;;;12.89;100.00;96020.22;5065831;28;19937;-72
2023/06/01 05:13:00;;;;;;;;;;;;;;;13.08;100.00;96025.00;5047150;28;19931;-71
2023/06/01 05:15:28;;;;;;;;;;;;;;;13.28;100.00;96029.72;5068541;28;20337;-71
2023/06/01 05:17:54;;;;;;;;;;;;;;;13.39;100.00;96026.38;5061662;28;19925;-72
2023/06/01 05:20:20;;;;;;;;;;;;;;;13.54;100.00;96022.69;5063535;28;19974;-72
2023/06/01 05:22:46;;;;;;;;;;;;;;;13.63;100.00;96023.78;5050199;28;19978;-72
2023/06/01 05:25:13;;;;;;;;;;;;;;;13.73;99.88;96027.41;5049176;28;19929;-71
2023/06/01 05:27:39;;;;;;;;;;;;;;;13.86;97.34;96023.94;5067765;28;19931;-71
2023/06/01 05:30:07;;;;;;;;;;;;;;;13.97;95.77;96027.41;5052755;28;19929;-71
2023/06/01 05:32:34;;;;;;;;;;;;;;;14.10;92.17;96023.94;5063201;28;19951;-72
2023/06/01 05:35:00;;;;;;;;;;;;;;;14.15;92.11;96020.03;5053642;28;20648;-73
2023/06/01 05:37:26;;;;;;;;;;;;;;;14.31;93.18;96021.53;5065625;28;20353;-73
2023/06/01 05:39:52;;;;;;;;;;;;;;;14.39;89.53;96017.44;5052768;28;19994;-72
2023/06/01 05:42:19;;;;;;;;;;;;;;;14.65;97.46;96020.72;5057304;28;19969;-72
2023/06/01 05:44:45;;;;;;;;;;;;;;;14.84;99.70;96019.34;5060326;28;19925;-72
2023/06/01 05:47:13;;;;;;;;;;;;;;;14.97;96.72;96018.28;5064870;28;19928;-72
2023/06/01 05:49:39;;;;;;;;;;;;;;;15.07;96.18;96015.81;5043304;28;20295;-73
2023/06/01 05:52:06;;;;;;;;;;;;;;;15.29;100.00;96019.38;5050002;28;20016;-72
2023/06/01 05:54:32;;;;;;;;;;;;;;;15.36;96.36;96016.16;5060605;28;20015;-72
2023/06/01 05:56:58;;;;;;;;;;;;;;;15.56;100.00;96011.16;5062149;28;19928;-72
2023/06/01 05:59:24;;;;;;;;;;;;;;;15.69;99.85;96010.09;5063358;28;19925;-72
2023/06/01 06:01:51;;;;;;;;;;;;;;;15.91;100.00;96011.00;5056954;28;19932;-72
2023/06/01 06:04:18;;;;;;;;;;;;;;;16.16;100.00;96015.06;5060047;28;19926;-74
2023/06/01 06:06:45;;;;;;;;;;;;;;;16.28;100.00;96021.94;5050601;28;19925;-72
2023/06/01 06:09:13;;;;;;;;;;;;;;;16.41;96.61;96024.34;5050380;28;19935;-72
2023/06/01 06:11:39;;;;;;;;;;;;;;;16.58;96.59;96015.13;5045017;28;19971;-74
2023/06/01 06:14:06;;;;;;;;;;;;;;;16.81;96.41;96026.31;5055113;28;19928;-73
2023/06/01 06:16:32;;;;;;;;;;;;;;;16.94;92.57;96021.69;5059912;28;19933;-70
2023/06/01 06:18:58;;;;;;;;;;;;;;;17.15;91.18;96019.88;5060368;28;19932;-72
2023/06/01 06:21:26;;;;;;;;;;;;;;;17.37;92.25;96018.06;5051111;28;19951;-71
2023/06/01 06:23:52;;;;;;;;;;;;;;;17.53;85.19;96023.63;5066927;28;19924;-72
2023/06/01 06:26:19;;;;;;;;;;;;;;;17.72;83.19;96022.03;5050896;28;19992;-71
2023/06/01 06:28:45;;;;;;;;;;;;;;;17.83;78.32;96020.16;5067615;28;19932;-71
2023/06/01 06:31:11;;;;;;;;;;;;;;;17.94;75.42;96021.00;5053278;28;20383;-71
2023/06/01 06:33:37;;;;;;;;;;;;;;;18.11;78.89;96020.34;5067310;28;19929;-71
2023/06/01 06:36:04;;;;;;;;;;;;;;;18.34;77.47;96023.53;5059145;28;19932;-71
2023/06/01 06:38:31;;;;;;;;;;;;;;;18.62;79.27;96020.06;5063757;28;19929;-73
2023/06/01 06:40:58;;;;;;;;;;;;;;;18.67;73.20;96014.41;5060561;28;20050;-73
2023/06/01 06:43:24;;;;;;;;;;;;;;;19.00;70.38;96012.31;5048934;28;19925;-70
2023/06/01 06:45:50;;;;;;;;;;;;;;;19.21;72.53;96012.13;5061573;28;19929;-72
2023/06/01 06:48:17;;;;;;;;;;;;;;;19.35;66.67;96016.88;5068447;28;19928;-71
2023/06/01 06:50:44;;;;;;;;;;;;;;;19.54;67.37;96018.59;5041069;28;19936;-74
2023/06/01 06:53:10;;;;;;;;;;;;;;;19.57;68.60;96018.28;5062131;28;20296;-74
2023/06/01 06:55:38;;;;;;;;;;;;;;;19.63;65.42;96022.19;5051697;28;19925;-73
2023/06/01 06:58:04;;;;;;;;;;;;;;;19.81;65.38;96021.25;5059752;28;20022;-70
2023/06/01 07:00:32;;;;;;;;;;;;;;;19.99;63.06;96021.28;5059503;28;19932;-75
2023/06/01 07:02:59;;;;;;;;;;;;;;;20.08;59.17;96019.56;5057125;28;19932;-71
2023/06/01 07:05:25;;;;;;;;;;;;;;;20.16;59.07;96018.81;5061161;28;19925;-73
2023/06/01 07:07:51;;;;;;;;;;;;;;;20.03;61.25;96016.56;5051026;28;19932;-73
2023/06/01 07:10:18;;;;;;;;;;;;;;;20.37;62.37;96016.72;5058586;28;19936;-73
2023/06/01 07:12:45;;;;;;;;;;;;;;;20.64;58.49;96013.19;5060383;28;19925;-73
2023/06/01 07:15:11;;;;;;;;;;;;;;;20.83;58.95;96016.63;5061697;28;20340;-73
2023/06/01 07:17:38;;;;;;;;;;;;;;;20.84;53.99;96021.75;5058009;28;19960;-74
2023/06/01 07:20:06;;;;;;;;;;;;;;;21.07;54.11;96015.97;5043747;28;20023;-73
2023/06/01 07:22:32;;;;;;;;;;;;;;;21.22;54.86;96017.06;5060738;28;20015;-73
2023/06/01 07:24:59;;;;;;;;;;;;;;;21.44;56.05;96024.44;5043115;28;19980;-73
2023/06/01 07:27:26;;;;;;;;;;;;;;;21.72;53.36;96024.22;5060161;28;19928;-73
2023/06/01 07:29:55;;;;;;;;;;;;;;;21.58;50.04;96020.41;5048774;28;19925;-75
2023/06/01 07:32:22;;;;;;;;;;;;;;;21.79;54.75;96024.44;5055009;28;19980;-75
2023/06/01 07:34:48;;;;;;;;;;;;;;;21.62;50.39;96019.09;5060876;28;19929;-74
2023/06/01 07:37:15;;;;;;;;;;;;;;;21.69;56.66;96020.13;5057447;28;19924;-74
2023/06/01 07:39:41;;;;;;;;;;;;;;;21.67;52.44;96021.25;5063181;28;19928;-73
2023/06/01 07:42:08;;;;;;;;;;;;;;;21.53;50.99;96025.31;5055066;28;19936;-74
2023/06/01 07:44:34;;;;;;;;;;;;;;;21.98;55.29;96010.97;5066157;28;20046;-75
2023/06/01 07:47:02;;;;;;;;;;;;;;;22.21;53.06;96019.13;5059941;28;19924;-74
2023/06/01 07:49:28;;;;;;;;;;;;;;;22.37;51.33;96013.06;5057414;28;20455;-74
2023/06/01 07:51:55;;;;;;;;;;;;;;;22.11;50.68;96019.25;5049385;28;19951;-74
2023/06/01 07:54:21;;;;;;;;;;;;;;;22.34;50.76;96019.47;5062202;28;20280;-74
2023/06/01 07:56:47;;;;;;;;;;;;;;;22.45;56.59;96013.88;5048981;28;19981;-74
2023/06/01 07:59:14;;;;;;;;;;;;;;;22.50;51.29;96016.03;5062164;28;20673;-74
2023/06/01 08:01:40;;;;;;;;;;;;;;;22.50;52.02;96017.84;5052282;28;19924;-75
2023/06/01 08:04:08;;;;;;;;;;;;;;;22.52;54.48;96015.88;5062002;28;19928;-74
2023/06/01 08:06:38;;;;;;;;;;;;;;;22.51;49.46;96012.41;5052174;28;19925;-73
2023/06/01 08:09:05;;;;;;;;;;;;;;;22.22;50.20;96018.97;5053014;28;19931;-73
2023/06/01 08:11:31;;;;;;;;;;;;;;;22.32;54.74;96018.00;5059562;28;20022;-73
2023/06/01 08:13:59;;;;;;;;;;;;;;;22.60;54.83;96005.31;5057058;28;19933;-73
2023/06/01 08:16:26;;;;;;;;;;;;;;;22.64;51.67;96020.66;5057193;28;20042;-73
2023/06/01 08:18:52;;;;;;;;;;;;;;;22.63;53.24;96007.63;5057269;28;19928;-73
2023/06/01 08:21:20;;;;;;;;;;;;;;;22.73;50.93;96005.66;5060303;28;19932;-73
2023/06/01 08:23:47;;;;;;;;;;;;;;;22.65;56.76;96008.28;5050392;28;20299;-73
2023/06/01 08:26:13;;;;;;;;;;;;;;;22.78;47.51;96002.50;5047076;28;19928;-74
2023/06/01 08:28:39;;;;;;;;;;;;;;;22.99;56.22;96002.84;5054481;28;19936;-73
2023/06/01 08:31:06;;;;;;;;;;;;;;;23.21;53.42;96000.47;5052943;28;19931;-73
2023/06/01 08:33:32;;;;;;;;;;;;;;;23.24;55.00;96000.16;5055526;28;19940;-73
2023/06/01 08:35:58;;;;;;;;;;;;;;;23.24;53.96;96002.78;5055087;28;19932;-72
2023/06/01 08:38:32;;;;;;;;;;;;;;;23.48;60.74;96001.91;5057710;28;20410;-73
2023/06/01 08:41:01;;;;;;;;;;;;;;;23.66;52.99;96002.50;5047841;28;19935;-73
2023/06/01 08:43:32;;;;;;;;;;;;;;;23.49;51.55;95995.63;5036826;28;19931;-73
2023/06/01 08:45:58;;;;;;;;;;;;;;;23.61;54.28;95994.25;5059923;28;20035;-74
2023/06/01 08:48:24;;;;;;;;;;;;;;;23.57;53.27;95993.75;5066485;28;19925;-73
2023/06/01 08:50:53;;;;;;;;;;;;;;;23.71;55.54;95997.53;5056018;28;20031;-73
2023/06/01 08:53:21;;;;;;;;;;;;;;;23.35;53.76;95995.31;5061351;28;20276;-73
2023/06/01 08:55:51;;;;;;;;;;;;;;;23.23;57.20;96001.97;5050850;28;19929;-73
2023/06/01 08:58:17;;;;;;;;;;;;;;;23.14;56.20;96003.00;5062934;28;19924;-73
2023/06/01 09:00:43;;;;;;;;;;;;;;;23.49;51.14;95998.25;5056743;28;19978;-73
2023/06/01 09:03:10;;;;;;;;;;;;;;;23.78;59.12;95993.22;5046703;28;19932;-73
2023/06/01 09:05:36;;;;;;;;;;;;;;;23.75;54.18;96000.66;5067056;28;19928;-73
2023/06/01 09:08:03;;;;;;;;;;;;;;;23.84;49.21;96003.13;5051311;28;20348;-73
2023/06/01 09:10:29;;;;;;;;;;;;;;;24.25;50.57;96002.88;5059449;28;19925;-73
2023/06/01 09:12:56;;;;;;;;;;;;;;;24.00;48.81;95999.56;5058617;28;20016;-74
2023/06/01 09:15:25;;;;;;;;;;;;;;;23.94;46.98;95997.59;5067939;28;19933;-74
2023/06/01 09:17:52;;;;;;;;;;;;;;;24.24;49.32;96003.03;5059048;28;19926;-73
2023/06/01 09:20:23;;;;;;;;;;;;;;;24.51;50.14;95999.91;5067778;28;19951;-73
2023/06/01 09:22:50;;;;;;;;;;;;;;;24.20;45.48;96004.38;5058264;28;19932;-74
2023/06/01 09:25:16;;;;;;;;;;;;;;;24.60;54.23;95993.53;5054440;28;20627;-73
2023/06/01 09:27:44;;;;;;;;;;;;;;;24.63;50.36;95992.38;5064843;28;19932;-74
2023/06/01 09:30:12;;;;;;;;;;;;;;;24.57;48.31;95999.19;5051645;28;19971;-74
2023/06/01 09:32:38;;;;;;;;;;;;;;;23.62;46.03;95996.72;5059210;28;20367;-73
2023/06/01 09:35:07;;;;;;;;;;;;;;;24.11;54.52;96004.44;5054898;28;19931;-74
2023/06/01 09:37:33;;;;;;;;;;;;;;;24.46;51.12;95999.59;5068039;28;19924;-74
2023/06/01 09:40:00;;;;;;;;;;;;;;;24.36;51.73;95997.19;5061037;28;20299;-74
2023/06/01 09:42:33;;;;;;;;;;;;;;;24.31;57.80;96002.16;5051014;28;20335;-74
2023/06/01 09:45:15;;;;;;;;;;;;;;;24.46;47.67;95990.84;5061320;28;20442;-74
2023/06/01 09:47:42;;;;;;;;;;;;;;;24.48;50.07;95994.16;5054916;28;19924;-74
2023/06/01 09:50:10;;;;;;;;;;;;;;;24.02;44.21;95994.06;5061119;28;19952;-73
2023/06/01 09:52:36;;;;;;;;;;;;;;;24.14;52.33;95993.50;5050714;28;20331;-73
2023/06/01 09:55:06;;;;;;;;;;;;;;;24.08;43.83;95986.25;5057795;28;19932;-74
2023/06/01 09:57:32;;;;;;;;;;;;;;;24.15;48.62;95983.75;5047098;28;19933;-74
2023/06/01 09:59:59;;;;;;;;;;;;;;;24.00;48.66;95988.97;5057305;28;20383;-74
2023/06/01 10:02:25;;;;;;;;;;;;;;;24.37;52.46;95980.28;5053944;28;20298;-73
2023/06/01 10:04:55;;;;;;;;;;;;;;;24.26;45.26;95975.41;5058275;28;20329;-73
2023/06/01 10:07:23;;;;;;;;;;;;;;;24.47;49.08;95971.31;5053461;28;20008;-73
2023/06/01 10:09:51;;;;;;;;;;;;;;;24.62;44.11;95967.72;5050696;28;19924;-73
2023/06/01 10:12:17;;;;;;;;;;;;;;;24.99;43.60;95975.81;5056213;28;20027;-73
2023/06/01 10:14:44;;;;;;;;;;;;;;;25.00;41.85;95970.34;5051089;28;20402;-73
2023/06/01 10:17:11;;;;;;;;;;;;;;;24.83;46.81;95960.91;5062137;28;20023;-73
2023/06/01 10:19:38;;;;;;;;;;;;;;;25.01;45.41;95973.81;5051266;28;19928;-73
2023/06/01 10:22:06;;;;;;;;;;;;;;;24.58;41.48;95973.53;5059747;28;19929;-73
2023/06/01 10:24:33;;;;;;;;;;;;;;;24.74;46.92;95970.75;5053596;28;20023;-74
2023/06/01 10:27:05;;;;;;;;;;;;;;;24.86;41.83;95966.66;5056615;28;20008;-73
2023/06/01 10:29:32;;;;;;;;;;;;;;;24.64;41.02;95970.16;5056099;28;20022;-74
2023/06/01 10:31:58;;;;;;;;;;;;;;;24.38;43.03;95967.88;5060458;28;19932;-73
2023/06/01 10:34:38;;;;;;;;;;;;;;;24.73;42.19;95969.09;5055239;28;19936;-73
2023/06/01 10:37:18;;;;;;;;;;;;;;;25.01;45.07;95958.72;5053322;28;20335;-73
2023/06/01 10:39:44;;;;;;;;;;;;;;;24.65;41.05;95961.22;5046699;28;19924;-73
2023/06/01 10:42:30;;;;;;;;;;;;;;;24.78;45.84;95957.97;5057752;28;20380;-73
2023/06/01 10:44:56;;;;;;;;;;;;;;;24.96;43.63;95955.81;5059106;28;19976;-74
2023/06/01 10:47:41;;;;;;;;;;;;;;;25.15;43.98;95958.97;5066398;28;20299;-74
2023/06/01 10:50:08;;;;;;;;;;;;;;;24.75;48.67;95961.78;5060356;28;19974;-74
2023/06/01 10:52:38;;;;;;;;;;;;;;;25.07;42.78;95950.06;5057068;28;19924;-74
2023/06/01 10:55:19;;;;;;;;;;;;;;;25.18;42.97;95955.94;5066054;28;19967;-75
2023/06/01 10:57:46;;;;;;;;;;;;;;;25.29;39.38;95956.31;5054203;28;19924;-74
2023/06/01 11:00:16;;;;;;;;;;;;;;;25.08;35.98;95954.34;5047604;28;20264;-74
2023/06/01 11:02:48;;;;;;;;;;;;;;;25.29;40.37;95951.00;5054987;28;19929;-74
2023/06/01 11:05:33;;;;;;;;;;;;;;;25.50;37.58;95952.09;5060372;28;20391;-74
2023/06/01 11:08:01;;;;;;;;;;;;;;;25.35;40.28;95952.09;5044489;28;19925;-74
2023/06/01 11:10:47;;;;;;;;;;;;;;;25.46;37.21;95945.50;5060500;28;21297;-74
2023/06/01 11:13:17;;;;;;;;;;;;;;;24.97;33.94;95944.19;5045555;28;20433;-73
2023/06/01 11:16:21;;;;;;;;;;;;;;;24.62;42.17;95946.53;5061846;28;19928;-74
2023/06/01 11:18:57;;;;;;;;;;;;;;;24.39;38.56;95946.53;5052574;28;19972;-73
2023/06/01 11:21:24;;;;;;;;;;;;;;;24.82;42.11;95940.72;5063609;28;19936;-73
2023/06/01 11:23:51;;;;;;;;;;;;;;;25.08;37.15;95942.94;5049349;28;20020;-74
2023/06/01 11:26:18;;;;;;;;;;;;;;;25.21;44.29;95943.13;5048502;28;20064;-73
2023/06/01 11:28:45;;;;;;;;;;;;;;;25.10;36.76;95940.94;5052821;28;20311;-74
2023/06/01 11:31:12;;;;;;;;;;;;;;;25.06;41.02;95939.63;5050468;28;19924;-74
2023/06/01 11:33:40;;;;;;;;;;;;;;;25.02;36.53;95941.00;5053458;28;20404;-70
2023/06/01 11:36:10;;;;;;;;;;;;;;;24.89;37.05;95933.69;5037952;28;19929;-71
2023/06/01 11:38:38;;;;;;;;;;;;;;;24.73;41.18;95932.00;5048291;28;19928;-71
2023/06/01 11:41:04;;;;;;;;;;;;;;;25.08;41.90;95929.69;5056230;28;20020;-71
2023/06/01 11:43:31;;;;;;;;;;;;;;;25.07;38.36;95930.69;5041265;28;19925;-71
2023/06/01 11:46:01;;;;;;;;;;;;;;;24.62;38.59;95921.84;5053630;28;20398;-71
2023/06/01 11:48:27;;;;;;;;;;;;;;;24.92;41.33;95921.88;5067353;28;19928;-71
2023/06/01 11:50:55;;;;;;;;;;;;;;;24.80;44.95;95919.69;5047699;28;20341;-71
2023/06/01 11:53:22;;;;;;;;;;;;;;;24.56;38.79;95910.16;5063345;28;19924;-72
2023/06/01 11:55:50;;;;;;;;;;;;;;;24.23;37.46;95917.53;5055841;28;19925;-71
2023/06/01 11:58:21;;;;;;;;;;;;;;;24.24;37.51;95919.16;5061507;28;20019;-71
2023/06/01 12:00:47;;;;;;;;;;;;;;;24.57;41.71;95913.63;5053312;28;20276;-71
2023/06/01 12:03:14;;;;;;;;;;;;;;;24.82;41.57;95908.94;5060017;28;19929;-71
2023/06/01 12:05:41;;;;;;;;;;;;;;;24.72;37.11;95914.47;5057746;28;20019;-71
2023/06/01 12:08:08;;;;;;;;;;;;;;;24.45;42.14;95901.84;5043996;28;20012;-71
2023/06/01 12:10:36;;;;;;;;;;;;;;;24.21;37.65;95901.00;5061749;28;20264;-71
2023/06/01 12:13:03;;;;;;;;;;;;;;;24.05;38.92;95904.59;5044525;28;19936;-71
2023/06/01 12:15:29;;;;;;;;;;;;;;;24.44;41.32;95892.25;5042102;28;20414;-71
2023/06/01 12:17:56;;;;;;;;;;;;;;;24.48;38.33;95896.19;5044515;28;19999;-71
2023/06/01 12:20:26;;;;;;;;;;;;;;;24.47;40.32;95903.28;5058208;28;19935;-71
2023/06/01 12:22:55;;;;;;;;;;;;;;;24.26;37.48;95906.59;5053437;28;19929;-71
2023/06/01 12:25:21;;;;;;;;;;;;;;;24.32;36.76;95900.56;5046055;28;19932;-71
2023/06/01 12:28:01;;;;;;;;;;;;;;;24.36;37.62;95890.44;5062104;28;19936;-71
2023/06/01 12:30:27;;;;;;;;;;;;;;;24.55;39.25;95889.19;5049167;28;19929;-71
2023/06/01 12:32:53;;;;;;;;;;;;;;;24.81;38.58;95889.56;5063373;28;19928;-71
2023/06/01 12:35:23;;;;;;;;;;;;;;;24.61;37.29;95888.44;5043328;28;19932;-71
2023/06/01 12:38:03;;;;;;;;;;;;;;;24.58;37.95;95881.69;5057578;28;20395;-71
2023/06/01 12:40:29;;;;;;;;;;;;;;;24.50;40.28;95881.75;5052839;28;19978;-71
2023/06/01 12:42:55;;;;;;;;;;;;;;;24.45;37.50;95883.31;5057651;28;20391;-71
2023/06/01 12:45:23;;;;;;;;;;;;;;;24.21;36.63;95879.00;5060980;28;19964;-71